Time;durP1;ratioP1;P1;durP2;ratioP2;P2;SDS_P1;SDS_P2;PMS_P1;PMS_P2;Temp;Humidity;BMP_temperature;BMP_pressure;BME280_temperature;BME280_humidity;BME280_pressure;Samples;Min_cycle;Max_cycle;Signal;HPM_P1;HPM_P2
2022/06/16 00:00:50;;;;;;;5.22;2.80;;;;;;;;;;5048554;28;20044;-47
2022/06/16 00:03:16;;;;;;;4.97;2.50;;;;;;;;;;5041686;28;20051;-47
2022/06/16 00:05:43;;;;;;;8.20;2.40;;;;;;;;;;5039836;28;20029;-47
2022/06/16 00:08:13;;;;;;;9.95;2.47;;;;;;;;;;5045318;28;20025;-46
2022/06/16 00:11:16;;;;;;;7.32;2.85;;;;;;;;;;5041987;28;20096;-46
2022/06/16 00:13:31;;;;;;;2.40;2.20;;;;;;;;;;5044772;28;20033;-46
2022/06/16 00:15:57;;;;;;;5.25;2.53;;;;;;;;;;5044249;28;20033;-46
2022/06/16 00:18:23;;;;;;;3.80;2.42;;;;;;;;;;5043049;28;20094;-47
2022/06/16 00:20:48;;;;;;;3.78;2.42;;;;;;;;;;5040504;28;20452;-46
2022/06/16 00:23:14;;;;;;;3.05;2.75;;;;;;;;;;5041973;28;20409;-46
2022/06/16 00:25:40;;;;;;;4.57;2.47;;;;;;;;;;5044314;28;20024;-47
2022/06/16 00:28:06;;;;;;;7.82;3.08;;;;;;;;;;5044001;28;20390;-46
2022/06/16 00:30:31;;;;;;;3.05;2.15;;;;;;;;;;5041512;28;20041;-46
2022/06/16 00:32:57;;;;;;;2.85;2.38;;;;;;;;;;5044484;28;20089;-48
2022/06/16 00:35:23;;;;;;;5.20;2.28;;;;;;;;;;5038994;28;20036;-46
2022/06/16 00:37:48;;;;;;;6.88;2.22;;;;;;;;;;5041138;28;20720;-46
2022/06/16 00:40:14;;;;;;;4.72;2.35;;;;;;;;;;5046623;28;20025;-47
2022/06/16 00:42:43;;;;;;;5.20;2.22;;;;;;;;;;5047436;28;20029;-48
2022/06/16 00:45:42;;;;;;;3.50;2.40;;;;;;;;;;5039876;28;20095;-51
2022/06/16 00:48:19;;;;;;;3.15;2.55;;;;;;;;;;5042702;28;20086;-47
2022/06/16 00:50:51;;;;;;;4.10;2.53;;;;;;;;;;5040375;28;20136;-46
2022/06/16 00:53:17;;;;;;;3.35;2.70;;;;;;;;;;5038863;28;20040;-47
2022/06/16 00:55:44;;;;;;;5.97;2.65;;;;;;;;;;5042112;28;20029;-45
2022/06/16 00:58:10;;;;;;;5.63;2.10;;;;;;;;;;5041630;28;20393;-47
2022/06/16 01:00:47;;;;;;;4.82;2.53;;;;;;;;;;5046430;28;20032;-50
2022/06/16 01:04:51;;;;;;;4.15;2.25;;;;;;;;;;5043640;28;20820;-45
2022/06/16 01:06:14;;;;;;;2.30;1.98;;;;;;;;;;5039069;28;20044;-45
2022/06/16 01:08:40;;;;;;;3.15;2.05;;;;;;;;;;5042375;28;20386;-45
2022/06/16 01:11:11;;;;;;;9.75;2.88;;;;;;;;;;5045656;28;20056;-47
2022/06/16 01:13:48;;;;;;;5.05;2.40;;;;;;;;;;5069121;28;20029;-48
2022/06/16 01:16:21;;;;;;;3.63;2.28;;;;;;;;;;5045472;28;20037;-47
2022/06/16 01:19:02;;;;;;;5.60;2.30;;;;;;;;;;5036451;28;20033;-46
2022/06/16 01:21:55;;;;;;;2.85;2.03;;;;;;;;;;5037944;28;20029;-46
2022/06/16 01:24:29;;;;;;;5.53;2.38;;;;;;;;;;5043031;28;20033;-46
2022/06/16 01:27:07;;;;;;;4.38;2.08;;;;;;;;;;5040424;28;20039;-45
2022/06/16 01:29:35;;;;;;;5.72;3.10;;;;;;;;;;5041523;28;20052;-48
2022/06/16 01:32:26;;;;;;;3.72;2.15;;;;;;;;;;5044413;28;20064;-46
2022/06/16 01:34:52;;;;;;;5.53;2.20;;;;;;;;;;5040881;28;20119;-46
2022/06/16 01:37:36;;;;;;;5.88;2.10;;;;;;;;;;5041442;28;20037;-46
2022/06/16 01:40:34;;;;;;;4.82;2.42;;;;;;;;;;5046351;28;20053;-47
2022/06/16 01:43:24;;;;;;;3.42;2.60;;;;;;;;;;5002549;28;20434;-46
2022/06/16 01:45:58;;;;;;;3.90;2.28;;;;;;;;;;5000942;28;20040;-47
2022/06/16 01:48:27;;;;;;;3.42;2.40;;;;;;;;;;5000764;28;20049;-48
2022/06/16 01:50:57;;;;;;;6.03;2.42;;;;;;;;;;5002226;28;20028;-45
2022/06/16 01:53:45;;;;;;;5.55;2.35;;;;;;;;;;5004705;28;20042;-46
2022/06/16 01:56:22;;;;;;;6.22;2.50;;;;;;;;;;5004298;28;20124;-47
2022/06/16 01:59:02;;;;;;;5.40;2.25;;;;;;;;;;5003783;28;20037;-45
2022/06/16 02:01:35;;;;;;;8.32;2.47;;;;;;;;;;5002523;28;20029;-49
2022/06/16 02:04:07;;;;;;;4.95;2.25;;;;;;;;;;5002571;28;20534;-45
2022/06/16 02:06:38;;;;;;;3.78;2.40;;;;;;;;;;5001763;28;20052;-47
2022/06/16 02:09:12;;;;;;;4.68;2.80;;;;;;;;;;5004457;28;20065;-46
2022/06/16 02:11:41;;;;;;;4.60;2.30;;;;;;;;;;5002737;28;20029;-50
2022/06/16 02:14:33;;;;;;;2.75;2.30;;;;;;;;;;5004232;28;20614;-46
2022/06/16 02:17:01;;;;;;;6.85;3.00;;;;;;;;;;5001754;28;20223;-46
2022/06/16 02:19:27;;;;;;;3.95;2.25;;;;;;;;;;5013206;28;20033;-50
2022/06/16 02:21:53;;;;;;;3.60;2.75;;;;;;;;;;5040052;28;20029;-46
2022/06/16 02:24:22;;;;;;;3.05;2.10;;;;;;;;;;5041956;28;20029;-49
2022/06/16 02:26:49;;;;;;;5.22;2.90;;;;;;;;;;5037087;28;20029;-47
2022/06/16 02:29:38;;;;;;;4.75;2.40;;;;;;;;;;5039582;28;20516;-46
2022/06/16 02:32:19;;;;;;;5.40;2.35;;;;;;;;;;5043793;28;20036;-47
2022/06/16 02:35:07;;;;;;;3.77;2.20;;;;;;;;;;5041963;28;20029;-48
2022/06/16 02:37:51;;;;;;;5.97;2.70;;;;;;;;;;5043812;28;20082;-46
2022/06/16 02:40:40;;;;;;;6.30;2.40;;;;;;;;;;5042484;28;20045;-50
2022/06/16 02:43:33;;;;;;;4.93;2.13;;;;;;;;;;5036037;28;20468;-49
2022/06/16 02:46:05;;;;;;;4.60;2.30;;;;;;;;;;5039716;28;20045;-47
2022/06/16 02:48:37;;;;;;;6.55;2.70;;;;;;;;;;5037570;28;20025;-45
2022/06/16 02:51:19;;;;;;;7.45;2.45;;;;;;;;;;5040419;28;20048;-46
2022/06/16 02:54:10;;;;;;;3.65;2.20;;;;;;;;;;5042010;28;20367;-46
2022/06/16 02:56:44;;;;;;;2.67;2.47;;;;;;;;;;5043177;28;20043;-45
2022/06/16 02:59:21;;;;;;;7.30;2.45;;;;;;;;;;5043961;28;20485;-46
2022/06/16 03:01:49;;;;;;;4.13;2.28;;;;;;;;;;5041516;28;20106;-47
2022/06/16 03:04:17;;;;;;;5.07;2.70;;;;;;;;;;5043092;28;20023;-49
2022/06/16 03:06:44;;;;;;;4.68;2.85;;;;;;;;;;5037964;28;20057;-46
2022/06/16 03:09:11;;;;;;;4.72;2.50;;;;;;;;;;5039596;28;20029;-46
2022/06/16 03:11:37;;;;;;;7.13;2.70;;;;;;;;;;5043047;28;20037;-46
2022/06/16 03:14:03;;;;;;;5.85;2.78;;;;;;;;;;5041416;28;20112;-45
2022/06/16 03:16:30;;;;;;;4.72;2.67;;;;;;;;;;5047822;28;20493;-45
2022/06/16 03:18:56;;;;;;;2.80;2.47;;;;;;;;;;5045559;28;20500;-47
2022/06/16 03:21:22;;;;;;;3.30;2.53;;;;;;;;;;5042813;28;20032;-45
2022/06/16 03:23:48;;;;;;;4.38;2.40;;;;;;;;;;5044486;28;20025;-45
2022/06/16 03:26:13;;;;;;;8.60;2.72;;;;;;;;;;5042992;28;20481;-46
2022/06/16 03:28:39;;;;;;;5.75;2.53;;;;;;;;;;5047749;28;20577;-47
2022/06/16 03:31:05;;;;;;;5.35;2.80;;;;;;;;;;5043960;28;20029;-46
2022/06/16 03:33:31;;;;;;;7.07;2.88;;;;;;;;;;5046162;28;20028;-46
2022/06/16 03:35:57;;;;;;;6.55;2.70;;;;;;;;;;5046435;28;20032;-46
2022/06/16 03:40:52;;;;;;;4.50;2.67;;;;;;;;;;5045158;28;20506;-45
2022/06/16 03:43:18;;;;;;;3.38;2.50;;;;;;;;;;5043715;28;20033;-49
2022/06/16 03:45:43;;;;;;;4.40;2.60;;;;;;;;;;5047003;28;20099;-47
2022/06/16 03:48:10;;;;;;;5.30;2.63;;;;;;;;;;5039295;28;20025;-45
2022/06/16 03:50:35;;;;;;;4.43;2.72;;;;;;;;;;5048502;28;20020;-45
2022/06/16 03:53:01;;;;;;;4.13;2.60;;;;;;;;;;5045306;28;20496;-49
2022/06/16 03:55:28;;;;;;;6.50;2.80;;;;;;;;;;5047299;28;20029;-45
2022/06/16 03:57:54;;;;;;;12.70;2.97;;;;;;;;;;5043476;28;20041;-45
2022/06/16 04:00:22;;;;;;;4.10;2.65;;;;;;;;;;5043292;28;20049;-46
2022/06/16 04:03:59;;;;;;;3.03;2.72;;;;;;;;;;5042568;28;20036;-46
2022/06/16 04:05:34;;;;;;;6.32;3.00;;;;;;;;;;5043061;28;20124;-46
2022/06/16 04:08:00;;;;;;;4.55;3.08;;;;;;;;;;5045916;28;20128;-45
2022/06/16 04:10:26;;;;;;;10.43;2.90;;;;;;;;;;5040785;28;20121;-46
2022/06/16 04:12:51;;;;;;;8.52;3.50;;;;;;;;;;5044989;28;20029;-45
2022/06/16 04:15:18;;;;;;;7.40;2.60;;;;;;;;;;5043802;28;20039;-50
2022/06/16 04:17:44;;;;;;;7.97;2.90;;;;;;;;;;5044637;28;20032;-45
2022/06/16 04:20:13;;;;;;;9.90;3.42;;;;;;;;;;5042837;28;20030;-45
2022/06/16 04:22:40;;;;;;;4.43;2.97;;;;;;;;;;5046426;28;20025;-46
2022/06/16 04:25:12;;;;;;;5.90;3.00;;;;;;;;;;5039911;28;20029;-46
2022/06/16 04:27:39;;;;;;;6.97;2.60;;;;;;;;;;5038790;28;20056;-50
2022/06/16 04:30:06;;;;;;;8.52;3.05;;;;;;;;;;5041591;28;20037;-46
2022/06/16 04:32:31;;;;;;;5.28;2.70;;;;;;;;;;5045151;28;20029;-45
2022/06/16 04:34:57;;;;;;;4.07;2.60;;;;;;;;;;5044160;28;20041;-46
2022/06/16 04:37:23;;;;;;;4.53;3.03;;;;;;;;;;5036440;28;20025;-46
2022/06/16 04:39:49;;;;;;;6.63;3.05;;;;;;;;;;5044229;28;20033;-45
2022/06/16 04:42:14;;;;;;;7.00;3.03;;;;;;;;;;5044976;28;20485;-46
2022/06/16 04:44:40;;;;;;;7.35;2.83;;;;;;;;;;5045085;28;20764;-46
2022/06/16 04:47:07;;;;;;;6.80;3.13;;;;;;;;;;5042706;28;20075;-45
2022/06/16 04:49:33;;;;;;;6.32;3.10;;;;;;;;;;5038409;28;20507;-45
2022/06/16 04:51:59;;;;;;;11.48;3.58;;;;;;;;;;5034477;28;20032;-50
2022/06/16 04:54:25;;;;;;;7.13;3.00;;;;;;;;;;5039443;28;20037;-46
2022/06/16 04:56:52;;;;;;;9.07;3.00;;;;;;;;;;5033831;28;20029;-50
2022/06/16 04:59:18;;;;;;;9.40;2.75;;;;;;;;;;5033574;28;20052;-46
2022/06/16 05:01:44;;;;;;;4.38;2.70;;;;;;;;;;5036065;28;20611;-47
2022/06/16 05:04:09;;;;;;;5.72;2.60;;;;;;;;;;5040333;28;20059;-46
2022/06/16 05:06:35;;;;;;;3.95;2.65;;;;;;;;;;5041058;28;20112;-47
2022/06/16 05:09:01;;;;;;;2.65;2.38;;;;;;;;;;5030631;28;20032;-47
2022/06/16 05:11:26;;;;;;;8.13;2.70;;;;;;;;;;5032183;28;20013;-47
2022/06/16 05:13:52;;;;;;;6.35;2.67;;;;;;;;;;5033099;28;20032;-46
2022/06/16 05:16:18;;;;;;;5.80;3.10;;;;;;;;;;5035618;28;20032;-46
2022/06/16 05:18:44;;;;;;;5.78;2.85;;;;;;;;;;5035089;28;20047;-46
2022/06/16 05:21:13;;;;;;;11.80;2.65;;;;;;;;;;5038061;28;20470;-47
2022/06/16 05:23:38;;;;;;;15.35;3.67;;;;;;;;;;5040879;28;20029;-48
2022/06/16 05:26:05;;;;;;;17.58;3.22;;;;;;;;;;5043417;28;20064;-47
2022/06/16 05:28:31;;;;;;;12.30;2.90;;;;;;;;;;5036745;28;20468;-45
2022/06/16 05:30:58;;;;;;;46.70;4.78;;;;;;;;;;5039826;28;20471;-50
2022/06/16 05:33:23;;;;;;;91.80;6.97;;;;;;;;;;5035122;28;20158;-46
2022/06/16 05:36:03;;;;;;;223.65;17.92;;;;;;;;;;5033623;28;20147;-48
2022/06/16 05:38:29;;;;;;;7.40;3.20;;;;;;;;;;5031191;28;20021;-46
2022/06/16 05:41:01;;;;;;;70.53;8.13;;;;;;;;;;5032580;28;20033;-46
2022/06/16 05:43:28;;;;;;;64.25;6.88;;;;;;;;;;5042237;28;20127;-46
2022/06/16 05:45:54;;;;;;;94.00;9.60;;;;;;;;;;5035547;28;20068;-50
2022/06/16 05:48:20;;;;;;;30.58;4.53;;;;;;;;;;5033405;28;20116;-48
2022/06/16 05:50:46;;;;;;;25.25;4.60;;;;;;;;;;5037514;28;20029;-46
2022/06/16 05:53:12;;;;;;;6.00;2.97;;;;;;;;;;5037275;28;20445;-49
2022/06/16 05:55:38;;;;;;;15.88;3.70;;;;;;;;;;5033008;28;20029;-47
2022/06/16 10:55:21;;;;;;;9.05;2.30;;;;;;;;;;5061429;27;20437;-46
2022/06/16 10:58:24;;;;;;;12.13;2.72;;;;;;;;;;5041213;28;20453;-46
2022/06/16 11:01:15;;;;;;;5.30;2.83;;;;;;;;;;5036725;28;20127;-47
2022/06/16 11:03:45;;;;;;;6.38;3.03;;;;;;;;;;5040972;28;20083;-47
2022/06/16 11:06:15;;;;;;;10.15;3.55;;;;;;;;;;5032832;28;20033;-45
2022/06/16 11:08:46;;;;;;;6.57;3.13;;;;;;;;;;5033247;28;20033;-47
2022/06/16 11:11:15;;;;;;;12.90;2.97;;;;;;;;;;5027751;28;20033;-46
2022/06/16 11:13:53;;;;;;;14.75;2.92;;;;;;;;;;5034416;28;20044;-45
2022/06/16 11:16:30;;;;;;;14.05;3.13;;;;;;;;;;5027509;28;20037;-46
2022/06/16 11:19:00;;;;;;;17.75;3.10;;;;;;;;;;5031884;28;20136;-50
2022/06/16 11:21:31;;;;;;;11.20;3.00;;;;;;;;;;5032728;28;20025;-45
2022/06/16 11:24:01;;;;;;;5.85;3.28;;;;;;;;;;5032104;28;20029;-45
2022/06/16 11:26:31;;;;;;;12.25;3.17;;;;;;;;;;5032415;28;20037;-45
2022/06/16 11:29:15;;;;;;;4.78;3.15;;;;;;;;;;5042437;28;20037;-46
2022/06/16 11:31:47;;;;;;;10.80;3.50;;;;;;;;;;5042293;28;20119;-48
2022/06/16 11:34:23;;;;;;;7.85;3.08;;;;;;;;;;5042512;28;20096;-47
2022/06/16 11:37:07;;;;;;;14.00;3.13;;;;;;;;;;5043624;28;20034;-45
2022/06/16 11:40:00;;;;;;;9.48;3.47;;;;;;;;;;5048112;28;20535;-45
2022/06/16 11:42:44;;;;;;;14.32;3.70;;;;;;;;;;5043765;28;20033;-47
2022/06/16 11:45:17;;;;;;;11.57;3.63;;;;;;;;;;5038079;28;20033;-48
2022/06/16 11:47:57;;;;;;;9.50;3.63;;;;;;;;;;5043868;28;20394;-47
2022/06/16 11:50:35;;;;;;;12.18;4.15;;;;;;;;;;5035304;28;20078;-47
2022/06/16 11:53:51;;;;;;;18.88;4.40;;;;;;;;;;5044749;28;20394;-47
2022/06/16 11:56:44;;;;;;;11.55;4.75;;;;;;;;;;5023663;28;20041;-51
2022/06/16 11:59:20;;;;;;;16.98;5.30;;;;;;;;;;5026558;28;20075;-47
2022/06/16 12:01:59;;;;;;;12.65;4.95;;;;;;;;;;5027060;28;20030;-46
2022/06/16 12:04:39;;;;;;;19.00;5.40;;;;;;;;;;5030642;28;20042;-46
2022/06/16 12:07:29;;;;;;;14.63;5.65;;;;;;;;;;5011978;28;20022;-44
2022/06/16 12:10:02;;;;;;;14.07;5.93;;;;;;;;;;5015588;28;20041;-48
2022/06/16 12:12:48;;;;;;;13.75;5.18;;;;;;;;;;5012478;28;20041;-45
2022/06/16 12:15:28;;;;;;;20.15;4.85;;;;;;;;;;5012442;28;20029;-45
2022/06/16 12:18:17;;;;;;;10.25;4.88;;;;;;;;;;5005051;28;20046;-45
2022/06/16 12:21:13;;;;;;;12.40;4.80;;;;;;;;;;5031546;28;20045;-47
2022/06/16 12:23:57;;;;;;;12.38;4.68;;;;;;;;;;5028285;28;20033;-47
2022/06/16 12:26:35;;;;;;;10.57;4.38;;;;;;;;;;5028627;28;20044;-46
2022/06/16 12:29:08;;;;;;;12.38;4.40;;;;;;;;;;5029265;28;20060;-46
2022/06/16 12:32:15;;;;;;;14.57;4.75;;;;;;;;;;5035938;28;20068;-45
2022/06/16 12:35:07;;;;;;;18.08;4.60;;;;;;;;;;5029287;28;20490;-47
2022/06/16 12:37:37;;;;;;;9.20;4.32;;;;;;;;;;5047180;28;20091;-46
2022/06/16 12:40:15;;;;;;;14.75;4.75;;;;;;;;;;5052421;28;20033;-47
2022/06/16 12:42:49;;;;;;;9.85;4.70;;;;;;;;;;5049836;28;20029;-47
2022/06/16 12:45:19;;;;;;;24.20;4.28;;;;;;;;;;5047369;28;20400;-47
2022/06/16 12:47:57;;;;;;;23.20;5.30;;;;;;;;;;5047317;28;20044;-45
2022/06/16 12:50:39;;;;;;;21.13;5.05;;;;;;;;;;5045209;28;20111;-48
2022/06/16 12:53:16;;;;;;;16.05;4.78;;;;;;;;;;5047081;28;20545;-45
2022/06/16 12:55:51;;;;;;;19.42;5.18;;;;;;;;;;5053600;28;20804;-47
2022/06/16 12:58:24;;;;;;;9.77;4.15;;;;;;;;;;5036928;28;20034;-45
2022/06/16 13:00:55;;;;;;;10.98;4.07;;;;;;;;;;5028790;28;20390;-46
2022/06/16 13:03:28;;;;;;;21.25;4.13;;;;;;;;;;5023186;28;20064;-47
2022/06/16 13:05:57;;;;;;;10.80;4.18;;;;;;;;;;5026257;28;20132;-46
2022/06/16 13:08:25;;;;;;;11.07;4.07;;;;;;;;;;5026337;28;20105;-45
2022/06/16 13:10:56;;;;;;;17.42;4.18;;;;;;;;;;5032206;28;20036;-49
2022/06/16 13:13:27;;;;;;;6.40;3.60;;;;;;;;;;5030676;28;20111;-46
2022/06/16 13:15:55;;;;;;;10.35;4.32;;;;;;;;;;5028863;28;20029;-47
2022/06/16 13:18:25;;;;;;;17.42;3.95;;;;;;;;;;5027601;28;20041;-46
2022/06/16 13:20:54;;;;;;;18.33;4.88;;;;;;;;;;5018784;28;20029;-46
2022/06/16 13:23:49;;;;;;;10.13;3.88;;;;;;;;;;5033641;28;20041;-46
2022/06/16 13:26:38;;;;;;;6.28;3.25;;;;;;;;;;5034553;28;20046;-46
2022/06/16 13:29:06;;;;;;;8.88;3.20;;;;;;;;;;5037940;28;20390;-45
2022/06/16 13:31:57;;;;;;;12.85;3.15;;;;;;;;;;5028093;28;20036;-45
2022/06/16 13:34:55;;;;;;;17.63;3.38;;;;;;;;;;5036722;28;20536;-45
2022/06/16 13:37:41;;;;;;;7.88;2.22;;;;;;;;;;5025255;28;20033;-46
2022/06/16 13:40:06;;;;;;;10.30;2.55;;;;;;;;;;5018299;28;20032;-46
2022/06/16 13:42:53;;;;;;;7.57;2.28;;;;;;;;;;5024171;28;20021;-45
2022/06/16 13:45:28;;;;;;;5.85;2.25;;;;;;;;;;5028763;28;20037;-46
2022/06/16 13:48:06;;;;;;;5.30;2.03;;;;;;;;;;5028948;28;20771;-49
2022/06/16 13:50:48;;;;;;;11.35;2.60;;;;;;;;;;5027876;28;20094;-46
2022/06/16 13:53:42;;;;;;;7.78;2.00;;;;;;;;;;5032531;28;20101;-44
2022/06/16 13:56:21;;;;;;;10.63;2.75;;;;;;;;;;5027689;28;20475;-46
2022/06/16 13:58:49;;;;;;;18.02;2.60;;;;;;;;;;5031735;28;20021;-45
2022/06/16 14:01:32;;;;;;;4.53;2.08;;;;;;;;;;5032419;28;20068;-48
2022/06/16 14:04:16;;;;;;;9.38;2.33;;;;;;;;;;5027577;28;20045;-45
2022/06/16 14:06:49;;;;;;;12.77;2.67;;;;;;;;;;5027578;28;20029;-46
2022/06/16 14:09:41;;;;;;;10.60;2.25;;;;;;;;;;5035061;28;20029;-45
2022/06/16 14:12:19;;;;;;;22.38;3.03;;;;;;;;;;5021453;28;20098;-47
2022/06/16 14:14:47;;;;;;;11.98;2.70;;;;;;;;;;5029548;28;20033;-45
2022/06/16 14:17:31;;;;;;;9.68;2.55;;;;;;;;;;5029221;28;20094;-45
2022/06/16 14:20:01;;;;;;;7.85;2.60;;;;;;;;;;5032373;28;20120;-45
2022/06/16 14:22:29;;;;;;;5.72;2.28;;;;;;;;;;5031889;28;20086;-46
2022/06/16 14:25:09;;;;;;;9.13;2.65;;;;;;;;;;5031328;28;20033;-45
2022/06/16 14:27:43;;;;;;;6.72;2.60;;;;;;;;;;5033531;28;20091;-47
2022/06/16 14:30:13;;;;;;;6.30;2.60;;;;;;;;;;5055571;28;20166;-46
2022/06/16 14:32:44;;;;;;;7.68;2.80;;;;;;;;;;5032561;28;20032;-46
2022/06/16 14:35:21;;;;;;;12.13;3.45;;;;;;;;;;5032377;28;20060;-45
2022/06/16 14:38:18;;;;;;;6.28;3.50;;;;;;;;;;5034619;28;20116;-45
2022/06/16 14:41:13;;;;;;;6.53;2.70;;;;;;;;;;5026635;28;20447;-45
2022/06/16 14:43:47;;;;;;;5.38;2.38;;;;;;;;;;5029808;28;20090;-45
2022/06/16 14:46:26;;;;;;;5.90;2.10;;;;;;;;;;5032430;28;20724;-46
2022/06/16 14:49:01;;;;;;;7.47;2.20;;;;;;;;;;5025663;28;20128;-45
2022/06/16 14:51:32;;;;;;;9.82;2.50;;;;;;;;;;5013414;28;20053;-47
2022/06/16 14:54:07;;;;;;;10.32;2.50;;;;;;;;;;5046646;28;20091;-45
2022/06/16 14:56:47;;;;;;;9.57;2.40;;;;;;;;;;5027266;28;20033;-49
2022/06/16 14:59:17;;;;;;;6.15;2.45;;;;;;;;;;5025666;28;20112;-44
2022/06/16 15:01:46;;;;;;;12.85;2.90;;;;;;;;;;5027810;28;20068;-47
2022/06/16 15:04:15;;;;;;;6.82;2.25;;;;;;;;;;5025969;28;20040;-47
2022/06/16 15:06:43;;;;;;;8.70;2.50;;;;;;;;;;5026350;28;20025;-47
2022/06/16 15:09:18;;;;;;;7.55;2.35;;;;;;;;;;5020236;28;20025;-48
2022/06/16 15:11:45;;;;;;;9.65;2.42;;;;;;;;;;5018757;28;20049;-46
2022/06/16 15:14:14;;;;;;;7.05;2.35;;;;;;;;;;5024953;28;20087;-47
2022/06/16 15:19:33;;;;;;;7.82;2.20;;;;;;;;;;5027519;28;20038;-45
2022/06/16 15:22:00;;;;;;;4.18;2.33;;;;;;;;;;5029616;28;20109;-44
2022/06/16 15:24:44;;;;;;;4.97;2.30;;;;;;;;;;5025511;28;20082;-44
2022/06/16 15:27:11;;;;;;;9.90;2.63;;;;;;;;;;5027512;28;20037;-44
2022/06/16 15:29:46;;;;;;;10.52;2.97;;;;;;;;;;5028305;28;20512;-45
2022/06/16 15:38:06;;;;;;;12.27;2.75;;;;;;;;;;5027393;28;20066;-45
2022/06/16 15:40:33;;;;;;;8.68;2.80;;;;;;;;;;5028040;28;20095;-44
2022/06/16 15:42:59;;;;;;;18.83;2.63;;;;;;;;;;5025566;28;20096;-44
2022/06/16 15:45:26;;;;;;;12.77;2.50;;;;;;;;;;5015646;28;20030;-45
2022/06/16 15:47:52;;;;;;;9.82;2.55;;;;;;;;;;5034219;28;20028;-45
2022/06/16 15:50:24;;;;;;;10.57;2.60;;;;;;;;;;5034113;28;20676;-47
2022/06/16 15:53:00;;;;;;;11.43;3.60;;;;;;;;;;5035023;28;20028;-45
2022/06/16 15:55:32;;;;;;;12.88;2.90;;;;;;;;;;5036971;28;20442;-47
2022/06/16 15:58:04;;;;;;;10.93;3.60;;;;;;;;;;5031302;28;20037;-45
2022/06/16 16:00:31;;;;;;;9.15;3.42;;;;;;;;;;5025121;28;20026;-44
2022/06/16 16:02:59;;;;;;;6.88;2.90;;;;;;;;;;5024382;28;20037;-46
2022/06/16 16:05:33;;;;;;;11.70;3.40;;;;;;;;;;5028280;28;20036;-44
2022/06/16 16:08:00;;;;;;;8.48;3.80;;;;;;;;;;5025465;28;20041;-43
2022/06/16 16:10:28;;;;;;;18.30;3.38;;;;;;;;;;5031632;28;20029;-43
2022/06/16 16:13:08;;;;;;;11.02;3.35;;;;;;;;;;5032773;28;20107;-44
2022/06/16 16:15:37;;;;;;;13.75;3.50;;;;;;;;;;5026895;28;20031;-44
2022/06/16 16:18:05;;;;;;;11.75;3.60;;;;;;;;;;5024872;28;20087;-45
2022/06/16 16:20:47;;;;;;;13.63;3.97;;;;;;;;;;5029535;28;20018;-43
2022/06/16 16:23:17;;;;;;;19.15;3.63;;;;;;;;;;5018703;28;20109;-44
2022/06/16 16:25:53;;;;;;;14.05;3.78;;;;;;;;;;5032342;28;20100;-43
2022/06/16 16:28:31;;;;;;;23.70;4.32;;;;;;;;;;5027626;28;20058;-43
2022/06/16 16:31:09;;;;;;;13.20;3.80;;;;;;;;;;5031954;28;20039;-44
2022/06/16 16:33:36;;;;;;;13.45;3.55;;;;;;;;;;5022629;28;20100;-45
2022/06/16 16:36:09;;;;;;;11.05;3.75;;;;;;;;;;5028592;28;20048;-43
2022/06/16 16:38:49;;;;;;;17.77;3.78;;;;;;;;;;5029506;28;20049;-44
2022/06/16 16:44:24;;;;;;;10.98;3.63;;;;;;;;;;5027929;28;20401;-44
2022/06/16 16:47:01;;;;;;;11.43;3.70;;;;;;;;;;5029854;28;20038;-44
2022/06/16 16:49:46;;;;;;;19.70;4.43;;;;;;;;;;5016953;28;20038;-43
2022/06/16 16:52:19;;;;;;;14.23;3.53;;;;;;;;;;5024977;28;20469;-42
2022/06/16 16:54:45;;;;;;;14.10;3.80;;;;;;;;;;5026473;28;20048;-50
2022/06/16 16:57:20;;;;;;;18.70;3.90;;;;;;;;;;5032130;28;20028;-45
2022/06/16 16:59:46;;;;;;;22.38;3.78;;;;;;;;;;5023855;28;20045;-44
2022/06/16 17:02:12;;;;;;;15.77;3.78;;;;;;;;;;5030962;28;20037;-45
2022/06/16 17:04:41;;;;;;;23.30;4.85;;;;;;;;;;5024886;28;20044;-44
2022/06/16 17:07:07;;;;;;;16.65;3.72;;;;;;;;;;5020305;28;20060;-43
2022/06/16 17:09:33;;;;;;;15.80;4.18;;;;;;;;;;5029273;28;20017;-44
2022/06/16 17:12:00;;;;;;;19.08;4.07;;;;;;;;;;5028097;28;20035;-46
2022/06/16 17:14:26;;;;;;;18.15;4.35;;;;;;;;;;5026980;28;20025;-49
2022/06/16 17:16:53;;;;;;;15.63;4.25;;;;;;;;;;5027490;28;20051;-42
2022/06/16 17:19:20;;;;;;;17.73;4.47;;;;;;;;;;5035157;28;20041;-44
2022/06/16 17:21:46;;;;;;;20.00;4.00;;;;;;;;;;5015984;28;20033;-44
2022/06/16 17:24:17;;;;;;;21.38;4.25;;;;;;;;;;5013453;28;20065;-46
2022/06/16 17:26:43;;;;;;;18.20;4.03;;;;;;;;;;5014872;28;20029;-45
2022/06/16 17:29:10;;;;;;;16.23;4.00;;;;;;;;;;5014878;28;20033;-46
2022/06/16 17:31:36;;;;;;;13.43;3.95;;;;;;;;;;5016299;28;20056;-45
2022/06/16 17:34:03;;;;;;;14.95;3.90;;;;;;;;;;5012031;28;20051;-47
2022/06/16 17:36:29;;;;;;;11.18;3.85;;;;;;;;;;5041613;28;20052;-44
2022/06/16 17:38:55;;;;;;;9.95;3.78;;;;;;;;;;5009873;28;20494;-45
2022/06/16 17:41:22;;;;;;;13.40;4.53;;;;;;;;;;5012511;28;20061;-47
2022/06/16 17:43:50;;;;;;;13.05;3.95;;;;;;;;;;5019136;28;20050;-48
2022/06/16 17:46:17;;;;;;;13.18;3.95;;;;;;;;;;5023872;28;20528;-44
2022/06/16 17:48:43;;;;;;;12.02;3.75;;;;;;;;;;5016744;28;20033;-45
2022/06/16 17:51:18;;;;;;;13.07;4.00;;;;;;;;;;5012252;28;20040;-47
2022/06/16 18:01:54;;;;;;;9.38;3.95;;;;;;;;;;5014617;28;20045;-44
2022/06/16 18:04:20;;;;;;;18.05;4.22;;;;;;;;;;5013009;28;20042;-44
2022/06/16 18:06:46;;;;;;;12.30;3.70;;;;;;;;;;5015521;28;20067;-47
2022/06/16 18:09:12;;;;;;;12.32;3.03;;;;;;;;;;5026536;28;20398;-44
2022/06/16 18:11:38;;;;;;;11.23;3.05;;;;;;;;;;5014197;28;20411;-45
2022/06/16 18:14:04;;;;;;;13.18;3.67;;;;;;;;;;5013020;28;20026;-44
2022/06/16 18:16:30;;;;;;;6.22;2.92;;;;;;;;;;5016574;28;20022;-44
2022/06/16 18:18:58;;;;;;;12.68;3.10;;;;;;;;;;5013381;28;21816;-44
2022/06/16 18:21:29;;;;;;;11.80;2.90;;;;;;;;;;5019110;28;20033;-44
2022/06/16 18:23:56;;;;;;;;;;;;;;;;;;5027631;28;20041;-46
2022/06/16 18:26:31;;;;;;;6.05;3.10;;;;;;;;;;5022362;28;19921;-45
2022/06/16 18:29:00;;;;;;;9.82;2.80;;;;;;;;;;5015051;28;20054;-44
2022/06/16 18:31:28;;;;;;;11.68;3.40;;;;;;;;;;5020814;28;20498;-46
2022/06/16 18:33:54;;;;;;;8.65;2.88;;;;;;;;;;5008234;28;20276;-49
2022/06/16 18:36:19;;;;;;;9.23;3.35;;;;;;;;;;5009947;28;20462;-43
2022/06/16 18:38:45;;;;;;;7.43;3.28;;;;;;;;;;5017164;28;20047;-45
2022/06/16 18:41:12;;;;;;;10.13;3.85;;;;;;;;;;5018271;28;20048;-44
2022/06/16 18:43:40;;;;;;;11.57;4.30;;;;;;;;;;5023272;28;20038;-49
2022/06/16 18:46:17;;;;;;;10.05;4.10;;;;;;;;;;5008161;28;20378;-46
2022/06/16 18:48:44;;;;;;;13.73;4.53;;;;;;;;;;5021110;28;20030;-46
2022/06/16 18:51:17;;;;;;;11.65;4.75;;;;;;;;;;5023523;28;20060;-45
2022/06/16 18:53:43;;;;;;;14.73;4.70;;;;;;;;;;5012353;28;20064;-48
2022/06/16 18:56:09;;;;;;;8.00;4.93;;;;;;;;;;5009029;28;20238;-44
2022/06/16 18:58:36;;;;;;;16.40;4.82;;;;;;;;;;5025823;28;20428;-46
2022/06/16 19:01:02;;;;;;;13.88;4.43;;;;;;;;;;5024512;28;20561;-45
2022/06/16 19:03:30;;;;;;;19.95;4.50;;;;;;;;;;5030610;28;20508;-45
2022/06/16 19:05:56;;;;;;;11.95;4.85;;;;;;;;;;5027684;28;20033;-45
2022/06/16 19:08:22;;;;;;;16.52;4.15;;;;;;;;;;5018516;28;20029;-44
2022/06/16 19:10:48;;;;;;;23.33;4.63;;;;;;;;;;5031476;28;20030;-45
2022/06/16 19:13:16;;;;;;;14.73;4.20;;;;;;;;;;5030393;28;20432;-43
2022/06/16 19:15:45;;;;;;;15.27;4.90;;;;;;;;;;5025196;28;20104;-44
2022/06/16 19:18:17;;;;;;;20.75;5.13;;;;;;;;;;5017631;28;20452;-43
2022/06/16 19:20:56;;;;;;;12.93;4.20;;;;;;;;;;5026462;28;20041;-43
2022/06/16 19:23:32;;;;;;;17.10;4.15;;;;;;;;;;5026431;28;20071;-43
2022/06/16 19:26:04;;;;;;;17.85;4.57;;;;;;;;;;5029873;28;20056;-45
2022/06/16 19:28:30;;;;;;;13.13;4.32;;;;;;;;;;5019934;28;20445;-44
2022/06/16 19:30:56;;;;;;;22.02;4.65;;;;;;;;;;5010561;28;20030;-45
2022/06/16 19:33:23;;;;;;;13.50;4.78;;;;;;;;;;5017779;28;20390;-50
2022/06/16 19:35:52;;;;;;;14.80;4.18;;;;;;;;;;5026797;28;20049;-47
2022/06/16 19:38:25;;;;;;;12.60;3.97;;;;;;;;;;5021809;28;20032;-44
2022/06/16 19:40:53;;;;;;;14.23;4.72;;;;;;;;;;5017746;28;20068;-44
2022/06/16 19:50:47;;;;;;;14.73;4.57;;;;;;;;;;5015377;28;20052;-43
2022/06/16 19:52:01;;;;;;;10.05;4.07;;;;;;;;;;5014697;28;20426;-44
2022/06/16 19:54:29;;;;;;;15.05;3.95;;;;;;;;;;5011062;28;20502;-43
2022/06/16 19:56:55;;;;;;;13.02;3.95;;;;;;;;;;5007724;28;20503;-43
2022/06/16 19:59:21;;;;;;;12.30;3.75;;;;;;;;;;5008045;28;20040;-46
2022/06/16 20:01:46;;;;;;;21.60;4.40;;;;;;;;;;5011584;28;20036;-46
2022/06/16 20:04:12;;;;;;;16.33;3.95;;;;;;;;;;5004630;28;20032;-46
2022/06/16 20:06:38;;;;;;;15.95;4.63;;;;;;;;;;5001896;28;20120;-43
2022/06/16 20:09:04;;;;;;;10.93;4.20;;;;;;;;;;5008713;28;20025;-44
2022/06/16 20:11:30;;;;;;;11.60;4.35;;;;;;;;;;5009661;28;20187;-43
2022/06/16 20:13:57;;;;;;;10.25;3.83;;;;;;;;;;5000218;28;20030;-48
2022/06/16 20:16:23;;;;;;;18.55;4.43;;;;;;;;;;5002483;28;20509;-44
2022/06/16 20:18:48;;;;;;;11.20;3.97;;;;;;;;;;5010688;28;20060;-44
2022/06/16 20:21:20;;;;;;;8.55;4.00;;;;;;;;;;5003077;28;20471;-43
2022/06/16 20:23:47;;;;;;;13.32;4.28;;;;;;;;;;5012590;28;20043;-43
2022/06/16 20:26:15;;;;;;;13.13;4.40;;;;;;;;;;5018696;28;20029;-44
2022/06/16 20:28:42;;;;;;;20.23;4.50;;;;;;;;;;5008920;28;20029;-43
2022/06/16 20:31:09;;;;;;;17.58;4.57;;;;;;;;;;5030750;28;20029;-43